Time;durP1;ratioP1;P1;durP2;ratioP2;P2;SDS_P1;SDS_P2;PMS_P1;PMS_P2;Temp;Humidity;BMP_temperature;BMP_pressure;BME280_temperature;BME280_humidity;BME280_pressure;Samples;Min_cycle;Max_cycle;Signal;HPM_P1;HPM_P2
2023/01/24 00:00:29;;;;;;;22.63;18.47;;;;;;;1.75;100.00;103688.41;5262901;28;20131;-77
2023/01/24 00:03:00;;;;;;;22.07;18.67;;;;;;;1.82;100.00;103695.47;5264055;28;20408;-75
2023/01/24 00:05:35;;;;;;;22.23;18.47;;;;;;;1.85;100.00;103700.69;5273502;28;20020;-76
2023/01/24 00:08:06;;;;;;;21.38;19.08;;;;;;;1.75;100.00;103690.97;5274549;28;20020;-79
2023/01/24 00:10:38;;;;;;;20.77;17.93;;;;;;;1.79;100.00;103700.56;5273879;28;20021;-75
2023/01/24 00:13:12;;;;;;;22.87;18.33;;;;;;;1.79;100.00;103696.28;5274246;28;20025;-76
2023/01/24 00:15:43;;;;;;;20.40;17.73;;;;;;;1.73;100.00;103697.84;5274433;28;20023;-79
2023/01/24 00:18:14;;;;;;;21.30;16.63;;;;;;;1.70;100.00;103703.78;5272442;28;20040;-73
2023/01/24 00:20:45;;;;;;;24.10;18.37;;;;;;;1.83;100.00;103694.63;5274671;28;20021;-74
2023/01/24 00:23:17;;;;;;;21.90;17.37;;;;;;;1.65;100.00;103690.78;5275007;28;20410;-75
2023/01/24 00:25:48;;;;;;;22.23;18.43;;;;;;;1.79;100.00;103698.84;5272051;28;20100;-74
2023/01/24 00:28:19;;;;;;;21.47;18.30;;;;;;;1.68;100.00;103695.13;5274130;28;20017;-75
2023/01/24 00:30:50;;;;;;;23.87;19.17;;;;;;;1.74;100.00;103690.13;5274851;28;20024;-73
2023/01/24 00:33:22;;;;;;;20.67;16.97;;;;;;;1.83;100.00;103688.59;5272419;28;20024;-71
2023/01/24 00:35:53;;;;;;;25.67;19.47;;;;;;;1.84;100.00;103692.91;5273148;28;20469;-76
2023/01/24 00:38:24;;;;;;;23.10;18.07;;;;;;;1.88;100.00;103681.81;5272903;28;20024;-76
2023/01/24 00:40:56;;;;;;;20.47;17.43;;;;;;;1.81;100.00;103678.22;5273920;28;20023;-76
2023/01/24 00:43:28;;;;;;;22.90;18.07;;;;;;;1.74;100.00;103673.75;5273990;28;20031;-71
2023/01/24 00:46:00;;;;;;;23.13;19.27;;;;;;;1.78;100.00;103670.41;5274025;28;20119;-76
2023/01/24 00:48:32;;;;;;;25.00;18.40;;;;;;;1.71;100.00;103673.66;5272919;28;20539;-73
2023/01/24 00:51:03;;;;;;;24.90;18.27;;;;;;;1.72;100.00;103667.66;5273828;28;20463;-72
2023/01/24 00:53:35;;;;;;;22.70;17.93;;;;;;;1.76;100.00;103670.34;5274332;28;20021;-77
2023/01/24 00:56:07;;;;;;;21.50;17.63;;;;;;;1.69;100.00;103671.91;5272695;28;20016;-76
2023/01/24 00:58:38;;;;;;;21.47;17.17;;;;;;;1.60;100.00;103663.97;5273499;28;20020;-77
2023/01/24 01:01:09;;;;;;;21.83;18.23;;;;;;;1.66;100.00;103666.66;5271720;28;20020;-77
2023/01/24 01:03:41;;;;;;;23.47;18.37;;;;;;;1.74;100.00;103673.75;5273202;28;20104;-74
2023/01/24 01:06:14;;;;;;;23.60;19.57;;;;;;;1.69;100.00;103671.91;5273380;28;20024;-74
2023/01/24 01:08:45;;;;;;;22.53;18.20;;;;;;;1.79;100.00;103672.13;5272251;28;20055;-72
2023/01/24 01:11:17;;;;;;;23.60;17.83;;;;;;;1.72;100.00;103671.13;5273254;28;20055;-75
2023/01/24 01:13:48;;;;;;;22.93;19.07;;;;;;;1.67;100.00;103665.84;5273413;28;20670;-76
2023/01/24 01:16:20;;;;;;;19.97;16.87;;;;;;;1.69;100.00;103661.56;5269375;28;20029;-74
2023/01/24 01:18:55;;;;;;;18.93;15.57;;;;;;;1.72;100.00;103654.72;5274109;28;20048;-72
2023/01/24 01:21:26;;;;;;;19.80;16.17;;;;;;;1.66;100.00;103661.50;5273885;28;20040;-77
2023/01/24 01:23:57;;;;;;;20.60;16.90;;;;;;;1.70;100.00;103652.13;5273154;28;20078;-74
2023/01/24 01:26:29;;;;;;;18.17;15.53;;;;;;;1.76;100.00;103657.41;5272788;28;20578;-76
2023/01/24 01:29:00;;;;;;;19.03;16.00;;;;;;;1.71;100.00;103655.59;5271857;28;20047;-75
2023/01/24 01:31:31;;;;;;;19.57;16.37;;;;;;;1.79;100.00;103666.97;5273418;28;20047;-75
2023/01/24 01:34:03;;;;;;;19.50;15.70;;;;;;;1.72;100.00;103665.06;5267722;28;20034;-74
2023/01/24 01:36:34;;;;;;;19.33;15.67;;;;;;;1.68;100.00;103666.69;5271550;28;20040;-76
2023/01/24 01:39:05;;;;;;;19.27;15.87;;;;;;;1.69;100.00;103664.16;5274765;28;20391;-73
2023/01/24 01:41:37;;;;;;;19.43;16.53;;;;;;;1.63;100.00;103664.03;5273352;28;20653;-74
2023/01/24 01:44:38;;;;;;;19.20;15.87;;;;;;;1.66;100.00;103655.47;5273339;28;20127;-76
2023/01/24 01:47:24;;;;;;;21.53;16.27;;;;;;;1.72;100.00;103665.06;5272663;28;20040;-77
2023/01/24 01:50:04;;;;;;;19.23;15.67;;;;;;;1.68;100.00;103658.97;5271883;28;20443;-72
2023/01/24 01:52:40;;;;;;;21.50;16.10;;;;;;;1.65;100.00;103664.06;5272916;28;20123;-74
2023/01/24 01:55:20;;;;;;;19.17;16.40;;;;;;;1.63;100.00;103657.97;5272907;28;20150;-76
2023/01/24 01:57:52;;;;;;;23.10;16.77;;;;;;;1.72;100.00;103665.06;5273930;28;20622;-72
2023/01/24 02:00:26;;;;;;;19.70;16.23;;;;;;;1.56;100.00;103659.53;5271656;28;20037;-76
2023/01/24 02:05:58;;;;;;;19.13;16.07;;;;;;;1.54;100.00;103654.34;5269081;28;20040;-75
2023/01/24 02:08:29;;;;;;;24.50;19.03;;;;;;;1.63;100.00;103651.09;5272552;28;20025;-77
2023/01/24 02:16:01;;;;;;;21.67;17.43;;;;;;;1.62;100.00;103658.81;5259871;28;20094;-75
2023/01/24 02:16:43;;;;;;;20.90;17.80;;;;;;;1.56;100.00;103657.84;5259197;28;20123;-74
2023/01/24 02:19:27;;;;;;;23.00;16.93;;;;;;;1.55;100.00;103657.81;5268341;28;20173;-76
2023/01/24 02:22:11;;;;;;;24.07;17.73;;;;;;;1.59;100.00;103658.75;5278480;28;20517;-72
2023/01/24 02:24:55;;;;;;;21.63;17.63;;;;;;;1.53;100.00;103654.31;5271008;28;20047;-75
2023/01/24 02:27:27;;;;;;;23.03;18.13;;;;;;;1.54;100.00;103658.63;5275629;28;20540;-76
2023/01/24 02:29:59;;;;;;;22.77;18.07;;;;;;;1.51;100.00;103656.84;5275021;28;20079;-77
2023/01/24 02:32:31;;;;;;;22.37;17.03;;;;;;;1.54;100.00;103658.63;5273870;28;20037;-77
2023/01/24 02:36:13;;;;;;;22.20;17.70;;;;;;;-150.27;100.00;61272.81;5275937;28;20028;-70
2023/01/24 02:39:51;;;;;;;21.90;18.13;;;;;;;-150.27;100.00;61272.81;5277037;28;20064;-75
2023/01/24 02:43:26;;;;;;;24.83;19.20;;;;;;;-150.27;100.00;61272.81;5276398;28;20076;-75
2023/01/24 02:46:56;;;;;;;23.97;18.90;;;;;;;-150.27;100.00;61272.81;5271243;28;20067;-74
2023/01/24 02:50:27;;;;;;;24.03;19.50;;;;;;;-150.27;100.00;61272.81;5274315;28;20043;-74
2023/01/24 02:53:57;;;;;;;25.17;19.87;;;;;;;-150.27;100.00;61272.81;5275674;28;20028;-73
2023/01/24 03:01:15;;;;;;;24.77;19.23;;;;;;;-150.27;100.00;61272.81;5276734;28;20490;-75
2023/01/24 03:04:46;;;;;;;25.23;19.27;;;;;;;-150.27;100.00;61272.81;5275299;28;20033;-71
2023/01/24 03:08:16;;;;;;;22.33;17.83;;;;;;;-150.27;100.00;61272.81;5290597;28;20028;-73
2023/01/24 03:11:46;;;;;;;24.47;18.67;;;;;;;-150.27;100.00;61272.81;5272222;28;20056;-71
2023/01/24 03:34:45;;;;;;;23.37;18.13;;;;;;;-150.27;100.00;61272.81;5275019;28;20028;-74
2023/01/24 03:42:07;;;;;;;24.87;18.03;;;;;;;-150.27;100.00;61272.81;5273891;28;20032;-77
2023/01/24 03:45:38;;;;;;;26.93;19.17;;;;;;;-150.27;100.00;61272.81;5263673;28;20162;-76
2023/01/24 03:49:08;;;;;;;24.17;18.77;;;;;;;-150.27;100.00;61272.81;5274757;28;20025;-74
2023/01/24 03:52:37;;;;;;;25.77;19.47;;;;;;;-150.27;100.00;61272.81;5275110;28;20031;-77
2023/01/24 03:56:07;;;;;;;26.23;19.60;;;;;;;-150.27;100.00;61272.81;5274659;28;20021;-77
2023/01/24 03:59:37;;;;;;;24.70;19.80;;;;;;;-150.27;100.00;61272.81;5275879;28;20052;-74
2023/01/24 04:02:12;;;;;;;23.07;18.50;;;;;;;1.54;100.00;103658.63;5270328;28;20024;-76
2023/01/24 04:08:32;;;;;;;23.53;19.20;;;;;;;-150.27;100.00;61272.81;5273858;28;20029;-77
2023/01/24 04:12:02;;;;;;;25.43;18.43;;;;;;;-150.27;100.00;61272.81;5272019;28;20041;-77
2023/01/24 04:14:48;;;;;;;26.20;19.80;;;;;;;1.33;100.00;103636.59;5275702;28;20471;-73
2023/01/24 04:17:19;;;;;;;24.57;18.10;;;;;;;1.39;100.00;103652.28;5274094;28;20020;-76
2023/01/24 04:19:51;;;;;;;23.57;18.50;;;;;;;1.33;100.00;103650.41;5274984;28;20031;-75
2023/01/24 04:22:22;;;;;;;23.17;19.03;;;;;;;1.27;100.00;103641.63;5274685;28;20028;-74
2023/01/24 04:24:53;;;;;;;25.13;19.47;;;;;;;1.30;100.00;103652.03;5262184;28;20476;-75
2023/01/24 04:27:25;;;;;;;25.47;19.70;;;;;;;1.27;100.00;103651.97;5271839;28;20025;-75
2023/01/24 04:29:56;;;;;;;24.53;18.80;;;;;;;1.26;100.00;103645.03;5274682;28;20044;-76
2023/01/24 04:32:30;;;;;;;24.90;19.63;;;;;;;1.19;100.00;103636.25;5274391;28;20037;-72
2023/01/24 04:35:03;;;;;;;25.65;19.58;;;;;;;1.26;100.00;103648.50;5274715;28;20032;-74
2023/01/24 04:37:34;;;;;;;21.60;18.40;;;;;;;1.22;100.00;103656.13;5274890;28;20035;-77
2023/01/24 04:40:06;;;;;;;27.10;20.87;;;;;;;1.23;100.00;103656.19;5273849;28;20523;-74
2023/01/24 04:42:37;;;;;;;22.57;18.13;;;;;;;1.16;100.00;103656.84;5274637;28;20506;-76
2023/01/24 04:45:10;;;;;;;24.20;18.97;;;;;;;1.18;100.00;103648.31;5274313;28;20077;-76
2023/01/24 04:47:41;;;;;;;23.07;18.77;;;;;;;1.22;100.00;103649.28;5274676;28;20023;-76
2023/01/24 04:50:13;;;;;;;25.27;19.60;;;;;;;1.18;100.00;103655.19;5273927;28;20026;-74
2023/01/24 04:52:44;;;;;;;23.47;18.30;;;;;;;1.09;100.00;103648.06;5274107;28;20025;-75
2023/01/24 04:55:15;;;;;;;24.60;19.50;;;;;;;1.24;100.00;103659.63;5273762;28;20115;-71
2023/01/24 04:57:46;;;;;;;26.00;19.23;;;;;;;1.29;100.00;103660.63;5272717;28;20032;-74
2023/01/24 05:00:18;;;;;;;23.80;19.33;;;;;;;1.27;100.00;103658.00;5273840;28;20116;-72
2023/01/24 05:02:51;;;;;;;23.90;18.83;;;;;;;1.22;100.00;103658.72;5272102;28;20080;-75
2023/01/24 05:05:22;;;;;;;23.27;18.37;;;;;;;1.28;100.00;103658.88;5273429;28;20598;-75
2023/01/24 05:07:53;;;;;;;24.30;19.03;;;;;;;1.23;100.00;103655.28;5274168;28;20025;-75
2023/01/24 05:10:25;;;;;;;22.73;17.50;;;;;;;1.27;100.00;103647.69;5273654;28;20052;-71
2023/01/24 05:12:56;;;;;;;22.80;18.70;;;;;;;1.42;100.00;103652.34;5273958;28;20032;-73
2023/01/24 05:15:27;;;;;;;21.97;18.90;;;;;;;1.23;100.00;103651.00;5274309;28;20043;-75
2023/01/24 05:17:58;;;;;;;23.67;18.33;;;;;;;1.30;100.00;103658.09;5273438;28;20094;-75
2023/01/24 05:20:30;;;;;;;24.90;18.37;;;;;;;1.24;100.00;103669.97;5274021;28;20044;-74
2023/01/24 05:23:01;;;;;;;25.03;18.80;;;;;;;1.25;100.00;103656.22;5274093;28;20486;-77
2023/01/24 05:25:32;;;;;;;25.70;19.87;;;;;;;1.37;100.00;103663.38;5262703;28;20429;-74
2023/01/24 05:28:05;;;;;;;26.07;19.43;;;;;;;1.25;100.00;103658.78;5273580;28;20399;-77
2023/01/24 05:30:36;;;;;;;23.83;18.17;;;;;;;1.29;100.00;103660.63;5273253;28;20051;-77
2023/01/24 05:33:07;;;;;;;23.40;19.63;;;;;;;1.23;100.00;103660.47;5272453;28;20032;-74
2023/01/24 05:35:40;;;;;;;21.87;17.53;;;;;;;1.24;100.00;103672.56;5273812;28;20032;-76
2023/01/24 05:38:11;;;;;;;22.83;18.80;;;;;;;1.22;100.00;103663.88;5274438;28;20028;-76
2023/01/24 05:40:42;;;;;;;23.70;18.40;;;;;;;1.30;100.00;103672.69;5274489;28;20025;-75
2023/01/24 05:43:14;;;;;;;23.97;18.80;;;;;;;1.35;100.00;103672.78;5274236;28;20028;-75
2023/01/24 05:45:45;;;;;;;21.77;17.97;;;;;;;1.25;100.00;103669.13;5273831;28;20044;-74
2023/01/24 05:48:16;;;;;;;22.53;18.07;;;;;;;1.20;100.00;103677.59;5273472;28;20017;-76
2023/01/24 05:50:47;;;;;;;25.17;20.10;;;;;;;1.09;100.00;103666.16;5274852;28;20024;-72
2023/01/24 05:53:19;;;;;;;22.47;17.53;;;;;;;1.25;100.00;103671.69;5274450;28;20031;-74
2023/01/24 05:55:55;;;;;;;24.50;18.87;;;;;;;1.17;100.00;103680.13;5278709;28;20024;-76
2023/01/24 05:58:28;;;;;;;21.20;16.90;;;;;;;1.30;100.00;103691.66;5278101;28;20017;-71
2023/01/24 06:00:59;;;;;;;23.53;18.63;;;;;;;1.35;100.00;103686.59;5278957;28;20098;-75
2023/01/24 06:03:31;;;;;;;22.63;18.63;;;;;;;1.28;100.00;103690.72;5277797;28;20024;-77
2023/01/24 06:06:02;;;;;;;22.97;17.63;;;;;;;1.21;100.00;103699.16;5277045;28;20111;-73
2023/01/24 06:08:34;;;;;;;21.07;17.63;;;;;;;1.22;100.00;103700.03;5276848;28;20097;-74
2023/01/24 06:11:09;;;;;;;23.00;18.03;;;;;;;1.18;100.00;103692.22;5277212;28;20481;-77
2023/01/24 06:13:41;;;;;;;23.80;18.77;;;;;;;1.07;100.00;103696.19;5276672;28;20054;-72
2023/01/24 06:16:17;;;;;;;21.07;17.07;;;;;;;0.98;100.00;103691.66;5277797;28;20111;-75
2023/01/24 06:18:50;;;;;;;22.63;16.40;;;;;;;0.99;100.00;103702.88;5276535;28;20070;-77
2023/01/24 06:21:46;;;;;;;21.43;18.00;;;;;;;0.96;100.00;103699.38;5276535;28;20037;-71
2023/01/24 06:24:18;;;;;;;23.07;18.27;;;;;;;0.95;100.00;103691.59;5271092;28;20025;-77
2023/01/24 06:26:51;;;;;;;20.97;17.17;;;;;;;0.89;100.00;103688.84;5276853;28;20037;-77
2023/01/24 06:29:23;;;;;;;21.63;16.07;;;;;;;1.00;100.00;103704.59;5275727;28;20032;-72
2023/01/24 06:32:09;;;;;;;21.57;17.13;;;;;;;1.00;100.00;103715.81;5276044;28;20043;-74
2023/01/24 06:35:00;;;;;;;24.10;18.30;;;;;;;1.04;100.00;103715.09;5263393;28;20028;-75
2023/01/24 06:37:49;;;;;;;22.50;17.50;;;;;;;0.98;100.00;103709.72;5276084;28;20036;-76
2023/01/24 06:40:22;;;;;;;22.53;18.13;;;;;;;1.04;100.00;103719.34;5293437;28;20028;-76
2023/01/24 06:42:54;;;;;;;20.80;17.13;;;;;;;0.96;100.00;103720.03;5277407;28;20024;-74
2023/01/24 06:45:25;;;;;;;22.17;19.00;;;;;;;0.94;100.00;103715.66;5277116;28;20028;-76
2023/01/24 06:47:57;;;;;;;22.17;18.43;;;;;;;0.89;100.00;103718.09;5276230;28;20025;-75
2023/01/24 06:50:31;;;;;;;24.60;19.00;;;;;;;0.90;100.00;103719.88;5276651;28;20051;-76
2023/01/24 06:53:02;;;;;;;22.08;18.75;;;;;;;0.93;100.00;103704.47;5276396;28;20029;-72
2023/01/24 06:55:34;;;;;;;23.00;18.40;;;;;;;0.93;100.00;103719.06;5276978;28;20029;-75
2023/01/24 06:58:05;;;;;;;23.30;19.10;;;;;;;0.93;100.00;103722.53;5293502;28;20021;-76
2023/01/24 07:00:37;;;;;;;24.33;18.63;;;;;;;0.89;100.00;103717.25;5273190;28;20044;-73
2023/01/24 07:03:09;;;;;;;25.93;19.90;;;;;;;0.88;100.00;103715.47;5274188;28;20482;-73
2023/01/24 07:05:40;;;;;;;27.27;19.03;;;;;;;0.81;100.00;103714.44;5275063;28;20021;-76
2023/01/24 07:08:12;;;;;;;25.53;19.83;;;;;;;0.76;100.00;103709.16;5270606;28;20031;-74
2023/01/24 07:10:43;;;;;;;24.67;19.47;;;;;;;0.78;100.00;103722.09;5270260;28;20043;-75
2023/01/24 07:13:14;;;;;;;27.03;20.80;;;;;;;0.84;100.00;103725.72;5269955;28;20051;-76
2023/01/24 07:15:46;;;;;;;27.70;19.67;;;;;;;0.79;100.00;103727.28;5261446;28;20017;-75
2023/01/24 07:18:18;;;;;;;24.50;18.57;;;;;;;0.83;100.00;103730.84;5260722;28;20020;-73
2023/01/24 07:20:50;;;;;;;26.03;20.20;;;;;;;0.86;100.00;103736.09;5258854;28;20079;-75
2023/01/24 07:23:31;;;;;;;26.47;20.10;;;;;;;0.83;100.00;103743.75;5260756;28;20581;-72
2023/01/24 07:26:09;;;;;;;23.57;19.07;;;;;;;1.04;100.00;103735.72;5269728;28;20382;-72
2023/01/24 07:28:40;;;;;;;24.80;20.20;;;;;;;1.11;100.00;103754.84;5263846;28;20418;-77
2023/01/24 07:31:14;;;;;;;23.90;18.77;;;;;;;0.97;100.00;103744.13;5273473;28;20104;-74
2023/01/24 07:33:47;;;;;;;24.77;18.70;;;;;;;0.97;100.00;103751.88;5273692;28;20127;-76
2023/01/24 07:36:18;;;;;;;22.33;18.57;;;;;;;1.04;100.00;103765.81;5274635;28;20139;-74
2023/01/24 07:38:53;;;;;;;23.07;18.57;;;;;;;1.05;100.00;103764.97;5266686;28;20031;-75
2023/01/24 07:41:24;;;;;;;23.23;18.17;;;;;;;0.85;100.00;103757.56;5260466;28;20113;-76
2023/01/24 07:43:55;;;;;;;22.53;17.60;;;;;;;0.89;100.00;103767.13;5268709;28;20119;-75
2023/01/24 07:46:27;;;;;;;22.07;17.70;;;;;;;0.80;100.00;103769.47;5274157;28;20036;-74
2023/01/24 07:48:59;;;;;;;23.30;18.37;;;;;;;0.78;100.00;103763.38;5276852;28;20031;-74
2023/01/24 07:51:30;;;;;;;25.80;18.40;;;;;;;0.83;100.00;103772.13;5274647;28;20029;-74
2023/01/24 07:54:02;;;;;;;26.77;19.07;;;;;;;0.89;100.00;103774.00;5275926;28;20506;-75
2023/01/24 07:56:33;;;;;;;26.53;19.37;;;;;;;0.87;100.00;103773.09;5276346;28;20032;-74
2023/01/24 07:59:04;;;;;;;22.50;17.43;;;;;;;0.87;100.00;103773.09;5268806;28;20029;-71
2023/01/24 08:01:36;;;;;;;24.73;19.63;;;;;;;0.78;100.00;103760.78;5274088;28;20040;-75
2023/01/24 08:04:07;;;;;;;29.70;18.70;;;;;;;0.83;100.00;103775.59;5269962;28;20032;-76
2023/01/24 08:07:16;;;;;;;30.87;20.00;;;;;;;0.77;100.00;103777.13;5274577;28;20036;-75
2023/01/24 08:09:30;;;;;;;23.77;17.97;;;;;;;0.92;100.00;103780.16;5263436;28;20048;-74
2023/01/24 08:12:02;;;;;;;23.37;17.73;;;;;;;0.89;100.00;103779.19;5275162;28;20039;-72
2023/01/24 08:14:33;;;;;;;23.63;19.30;;;;;;;0.87;100.00;103773.97;5290304;28;20055;-74
2023/01/24 08:17:05;;;;;;;23.63;19.17;;;;;;;0.81;100.00;103769.50;5274090;28;20070;-75
2023/01/24 08:19:37;;;;;;;25.67;18.87;;;;;;;0.82;100.00;103778.13;5275130;28;20028;-76
2023/01/24 08:22:09;;;;;;;26.17;19.73;;;;;;;0.78;100.00;103781.44;5273854;28;20073;-74
2023/01/24 08:24:40;;;;;;;25.13;20.00;;;;;;;0.82;100.00;103778.97;5265838;28;20025;-75
2023/01/24 08:27:11;;;;;;;25.47;20.90;;;;;;;0.83;100.00;103780.75;5270602;28;20044;-73
2023/01/24 08:29:42;;;;;;;26.87;20.27;;;;;;;0.79;100.00;103783.19;5275606;28;20032;-75
2023/01/24 08:32:14;;;;;;;26.40;19.83;;;;;;;0.79;100.00;103785.75;5274621;28;20028;-77
2023/01/24 08:34:45;;;;;;;25.03;20.03;;;;;;;0.86;100.00;103784.22;5274174;28;20036;-75
2023/01/24 08:37:16;;;;;;;24.50;19.53;;;;;;;0.78;100.00;103786.59;5274075;28;20024;-75
2023/01/24 08:39:47;;;;;;;24.73;18.67;;;;;;;0.71;100.00;103776.13;5273160;28;20142;-75
2023/01/24 08:42:19;;;;;;;23.97;19.67;;;;;;;0.74;100.00;103800.22;5273493;28;20024;-78
2023/01/24 08:44:51;;;;;;;25.43;19.20;;;;;;;0.74;100.00;103802.81;5273538;28;20111;-78
2023/01/24 08:47:22;;;;;;;26.43;19.50;;;;;;;0.69;100.00;103801.00;5271768;28;20082;-74
2023/01/24 08:49:53;;;;;;;24.03;19.07;;;;;;;0.50;100.00;103785.78;5278621;28;20064;-79
2023/01/24 08:52:25;;;;;;;25.53;19.40;;;;;;;0.70;100.00;103810.47;5267449;28;20028;-78
2023/01/24 08:54:56;;;;;;;23.73;18.73;;;;;;;0.77;100.00;103811.50;5256209;28;20113;-79
2023/01/24 08:57:27;;;;;;;26.33;20.63;;;;;;;0.87;100.00;103807.53;5262337;28;20033;-78
2023/01/24 08:59:58;;;;;;;22.73;17.97;;;;;;;0.73;100.00;103809.69;5275141;28;20016;-73
2023/01/24 09:02:32;;;;;;;25.37;19.60;;;;;;;0.89;100.00;103812.72;5272855;28;20040;-78
2023/01/24 09:05:05;;;;;;;25.47;19.60;;;;;;;0.75;100.00;103814.91;5273872;28;20523;-72
2023/01/24 09:07:36;;;;;;;24.27;18.30;;;;;;;0.68;100.00;103817.28;5272584;28;20066;-74
2023/01/24 09:10:08;;;;;;;25.80;19.43;;;;;;;0.68;100.00;103824.16;5274641;28;20074;-76
2023/01/24 09:12:39;;;;;;;28.47;20.37;;;;;;;0.64;100.00;103820.63;5271003;28;20070;-73
2023/01/24 09:15:11;;;;;;;25.67;19.70;;;;;;;0.75;100.00;103820.06;5268783;28;20487;-80
2023/01/24 09:17:42;;;;;;;26.07;19.37;;;;;;;0.76;100.00;103811.47;5271800;28;20028;-79
2023/01/24 09:20:14;;;;;;;27.20;20.63;;;;;;;0.67;100.00;103814.66;5273861;28;20060;-71
2023/01/24 09:22:45;;;;;;;24.40;18.97;;;;;;;0.75;100.00;103813.16;5272191;28;20020;-74
2023/01/24 09:25:16;;;;;;;29.67;20.20;;;;;;;0.87;100.00;103815.25;5270650;28;20058;-72
2023/01/24 09:27:55;;;;;;;21.90;17.03;;;;;;;0.87;100.00;103817.84;5270293;28;20090;-73
2023/01/24 09:30:26;;;;;;;25.43;19.20;;;;;;;0.83;100.00;103810.84;5272271;28;20086;-75
2023/01/24 09:32:58;;;;;;;23.83;18.43;;;;;;;0.90;100.00;103815.34;5264714;28;20037;-71
2023/01/24 09:35:29;;;;;;;24.57;19.40;;;;;;;0.96;100.00;103819.81;5264512;28;20025;-71
2023/01/24 09:38:00;;;;;;;22.07;17.70;;;;;;;0.88;100.00;103829.91;5262580;28;20029;-70
2023/01/24 09:40:43;;;;;;;22.23;16.83;;;;;;;0.90;100.00;103820.50;5261776;28;20043;-76
2023/01/24 09:43:36;;;;;;;26.90;18.63;;;;;;;0.80;100.00;103824.50;5264759;28;20032;-77
2023/01/24 09:46:56;;;;;;;21.30;16.67;;;;;;;0.89;100.00;103828.22;5264441;28;20029;-74
2023/01/24 09:49:36;;;;;;;24.17;17.47;;;;;;;0.76;100.00;103822.69;5262756;28;20109;-74
2023/01/24 09:52:17;;;;;;;21.47;16.97;;;;;;;0.78;100.00;103822.72;5264731;28;20102;-76
2023/01/24 09:55:09;;;;;;;21.07;16.20;;;;;;;0.80;100.00;103839.13;5265097;28;20032;-75
2023/01/24 09:58:06;;;;;;;20.87;16.40;;;;;;;0.76;100.00;103834.69;5263302;28;20036;-74
2023/01/24 10:00:38;;;;;;;21.43;16.27;;;;;;;0.67;100.00;103836.19;5260155;28;20040;-74
2023/01/24 10:03:21;;;;;;;19.73;16.07;;;;;;;0.62;100.00;103834.28;5259957;28;20534;-73
2023/01/24 10:05:54;;;;;;;21.67;15.77;;;;;;;0.72;100.00;103844.03;5264642;28;20046;-76
2023/01/24 10:08:50;;;;;;;20.47;15.50;;;;;;;0.77;100.00;103841.63;5263101;28;20761;-73
2023/01/24 10:11:48;;;;;;;22.47;16.80;;;;;;;0.76;100.00;103839.84;5263480;28;20054;-70
2023/01/24 10:14:20;;;;;;;20.73;16.87;;;;;;;0.78;100.00;103840.78;5263452;28;20129;-72
2023/01/24 10:17:13;;;;;;;21.20;16.43;;;;;;;0.83;100.00;103841.78;5263608;28;20120;-75
2023/01/24 10:20:05;;;;;;;23.60;17.60;;;;;;;0.88;100.00;103840.22;5263785;28;20391;-72
2023/01/24 10:22:59;;;;;;;21.33;15.77;;;;;;;0.95;100.00;103837.00;5263764;28;20419;-72
2023/01/24 10:26:01;;;;;;;22.73;16.80;;;;;;;0.95;100.00;103841.28;5262333;28;20037;-74
2023/01/24 10:28:37;;;;;;;21.80;15.63;;;;;;;0.85;100.00;103840.16;5261492;28;20410;-72
2023/01/24 10:31:16;;;;;;;21.33;16.00;;;;;;;0.89;100.00;103835.97;5259521;28;20032;-72
2023/01/24 10:33:50;;;;;;;22.70;15.77;;;;;;;0.94;100.00;103844.72;5262137;28;20036;-71
2023/01/24 10:36:50;;;;;;;22.55;15.85;;;;;;;0.99;100.00;103840.56;5260567;28;20037;-71
2023/01/24 10:39:21;;;;;;;19.50;14.80;;;;;;;0.96;100.00;103831.00;5260799;28;20433;-74
2023/01/24 10:41:53;;;;;;;20.23;15.07;;;;;;;0.94;100.00;103844.72;5265487;28;20025;-74
2023/01/24 10:44:29;;;;;;;21.10;16.30;;;;;;;0.98;100.00;103837.94;5265676;28;20038;-74
2023/01/24 10:47:21;;;;;;;20.03;16.37;;;;;;;1.02;100.00;103843.22;5265204;28;20032;-72
2023/01/24 10:50:07;;;;;;;20.30;15.43;;;;;;;0.93;100.00;103828.34;5264899;28;20032;-70
2023/01/24 10:52:39;;;;;;;19.83;14.50;;;;;;;0.82;100.00;103834.91;5261748;28;20051;-87
2023/01/24 10:55:35;;;;;;;20.40;14.93;;;;;;;0.90;100.00;103838.56;5266030;28;20033;-74
2023/01/24 10:58:35;;;;;;;19.83;14.77;;;;;;;0.88;100.00;103832.50;5266768;28;20078;-81
2023/01/24 11:01:08;;;;;;;21.60;16.23;;;;;;;0.85;100.00;103840.16;5265485;28;20048;-74
2023/01/24 11:03:40;;;;;;;20.13;15.43;;;;;;;0.90;100.00;103827.38;5266657;28;20674;-76
2023/01/24 11:06:25;;;;;;;20.33;14.17;;;;;;;0.91;100.00;103822.25;5265069;28;20036;-74
2023/01/24 11:09:19;;;;;;;21.15;14.52;;;;;;;1.01;100.00;103825.09;5271217;28;20024;-75
2023/01/24 11:11:56;;;;;;;20.15;14.80;;;;;;;0.90;100.00;103820.50;5270747;28;20781;-75
2023/01/24 11:14:33;;;;;;;19.27;15.13;;;;;;;0.95;100.00;103816.34;5269786;28;20139;-73
2023/01/24 11:17:30;;;;;;;20.27;15.10;;;;;;;1.00;100.00;103819.06;5265322;28;20100;-76
2023/01/24 11:20:31;;;;;;;18.87;14.63;;;;;;;1.02;100.00;103814.81;5276918;28;20078;-76
2023/01/24 11:23:24;;;;;;;20.57;15.03;;;;;;;1.16;100.00;103812.63;5265802;28;20040;-72
2023/01/24 11:26:01;;;;;;;19.57;14.97;;;;;;;1.18;100.00;103813.56;5264924;28;20386;-76
2023/01/24 11:28:37;;;;;;;20.23;14.23;;;;;;;1.25;100.00;103808.56;5276881;28;20398;-73
2023/01/24 11:31:22;;;;;;;18.70;14.07;;;;;;;1.28;100.00;103806.06;5262460;28;20490;-73
2023/01/24 11:34:20;;;;;;;20.93;14.60;;;;;;;1.37;100.00;103811.47;5264435;28;20104;-77
2023/01/24 11:37:22;;;;;;;20.43;14.83;;;;;;;1.29;100.00;103803.50;5266233;28;20021;-72
2023/01/24 11:40:28;;;;;;;16.97;13.47;;;;;;;1.30;100.00;103806.97;5269408;28;20039;-76
2023/01/24 11:43:21;;;;;;;17.77;14.23;;;;;;;1.29;100.00;103789.75;5194795;28;20030;-74
2023/01/24 11:46:24;;;;;;;20.93;14.73;;;;;;;1.29;100.00;103795.75;5271210;28;20046;-72
2023/01/24 11:49:10;;;;;;;18.03;13.97;;;;;;;1.30;100.00;103796.66;5275106;28;20021;-78
2023/01/24 11:51:56;;;;;;;17.23;13.87;;;;;;;1.29;100.00;103795.75;5282277;28;20078;-77
2023/01/24 11:55:09;;;;;;;18.37;13.67;;;;;;;1.39;100.00;103791.75;5260965;28;20021;-74
2023/01/24 11:57:55;;;;;;;19.23;14.33;;;;;;;1.22;100.00;103783.53;5244880;28;20037;-77
2023/01/24 12:00:29;;;;;;;20.90;14.70;;;;;;;1.24;100.00;103789.59;5262684;28;20044;-76
2023/01/24 12:03:33;;;;;;;19.63;13.40;;;;;;;1.17;100.00;103792.88;5273198;28;20375;-70
2023/01/24 12:06:34;;;;;;;19.80;14.00;;;;;;;1.07;100.00;103790.03;5284559;28;20028;-74
2023/01/24 12:09:22;;;;;;;18.63;14.00;;;;;;;1.09;100.00;103774.56;5255728;28;20484;-77
2023/01/24 12:12:28;;;;;;;17.83;12.93;;;;;;;1.17;100.00;103775.66;5274226;28;20025;-78
2023/01/24 12:15:30;;;;;;;19.97;15.07;;;;;;;1.18;100.00;103771.38;5262817;28;20025;-77
2023/01/24 12:18:17;;;;;;;19.80;14.97;;;;;;;1.09;100.00;103766.81;5273082;28;20376;-71
2023/01/24 12:21:08;;;;;;;19.07;14.83;;;;;;;1.12;100.00;103761.75;5290203;28;20058;-78
2023/01/24 12:23:51;;;;;;;18.80;14.40;;;;;;;1.09;100.00;103766.81;5272462;28;20063;-77
2023/01/24 12:26:27;;;;;;;18.87;13.83;;;;;;;1.11;100.00;103760.00;5263197;28;20044;-75
2023/01/24 12:29:16;;;;;;;18.53;14.13;;;;;;;1.04;100.00;103750.34;5273915;28;20082;-76
2023/01/24 12:32:03;;;;;;;18.67;14.17;;;;;;;1.02;100.00;103742.56;5274062;28;20382;-73
2023/01/24 12:34:45;;;;;;;18.83;14.73;;;;;;;1.10;100.00;103741.91;5274119;28;20030;-73
2023/01/24 12:37:40;;;;;;;20.50;15.40;;;;;;;1.11;100.00;103741.94;5273667;28;20032;-73
2023/01/24 12:40:11;;;;;;;21.30;14.80;;;;;;;1.04;100.00;103745.16;5274258;28;20021;-77
2023/01/24 12:43:03;;;;;;;17.87;14.27;;;;;;;1.04;100.00;103732.25;5274326;28;20020;-71
2023/01/24 12:45:47;;;;;;;21.33;14.07;;;;;;;0.94;100.00;103724.25;5272353;28;20025;-76